sensor_id;sensor_type;location;lat;lon;timestamp;temperature;humidity
15879;DHT22;61999;51.514;14.614;2023-01-20T00:01:41;-3.40;56.60
15879;DHT22;61999;51.514;14.614;2023-01-20T00:04:12;-3.40;56.40
15879;DHT22;61999;51.514;14.614;2023-01-20T00:06:40;-3.40;56.40
15879;DHT22;61999;51.514;14.614;2023-01-20T00:09:13;-3.50;56.20
15879;DHT22;61999;51.514;14.614;2023-01-20T00:11:43;-3.50;56.50
15879;DHT22;61999;51.514;14.614;2023-01-20T00:14:11;-3.50;56.60
15879;DHT22;61999;51.514;14.614;2023-01-20T00:16:40;-3.50;56.60
15879;DHT22;61999;51.514;14.614;2023-01-20T00:19:09;-3.40;56.70
15879;DHT22;61999;51.514;14.614;2023-01-20T00:21:40;-3.40;56.70
15879;DHT22;61999;51.514;14.614;2023-01-20T00:24:08;-3.40;56.60
15879;DHT22;61999;51.514;14.614;2023-01-20T00:26:37;-3.30;56.70
15879;DHT22;61999;51.514;14.614;2023-01-20T00:29:07;-3.30;56.70
15879;DHT22;61999;51.514;14.614;2023-01-20T00:31:35;-3.30;56.80
15879;DHT22;61999;51.514;14.614;2023-01-20T00:34:03;-3.30;56.90
15879;DHT22;61999;51.514;14.614;2023-01-20T00:36:32;-3.20;57.00
15879;DHT22;61999;51.514;14.614;2023-01-20T00:39:01;-3.20;56.90
15879;DHT22;61999;51.514;14.614;2023-01-20T00:41:30;-3.20;57.00
15879;DHT22;61999;51.514;14.614;2023-01-20T00:44:00;-3.10;56.90
15879;DHT22;61999;51.514;14.614;2023-01-20T00:46:28;-3.00;56.90
15879;DHT22;61999;51.514;14.614;2023-01-20T00:48:56;-3.00;56.90
15879;DHT22;61999;51.514;14.614;2023-01-20T00:51:24;-2.90;56.80
15879;DHT22;61999;51.514;14.614;2023-01-20T00:53:52;-2.90;56.60
15879;DHT22;61999;51.514;14.614;2023-01-20T00:56:20;-2.90;56.60
15879;DHT22;61999;51.514;14.614;2023-01-20T00:58:48;-2.90;56.60
15879;DHT22;61999;51.514;14.614;2023-01-20T01:01:18;-2.90;56.50
15879;DHT22;61999;51.514;14.614;2023-01-20T01:03:47;-3.00;56.70
15879;DHT22;61999;51.514;14.614;2023-01-20T01:06:16;-3.10;57.10
15879;DHT22;61999;51.514;14.614;2023-01-20T01:08:44;-3.20;57.90
15879;DHT22;61999;51.514;14.614;2023-01-20T01:11:13;-3.30;58.50
15879;DHT22;61999;51.514;14.614;2023-01-20T01:13:41;-3.40;58.80
15879;DHT22;61999;51.514;14.614;2023-01-20T01:16:11;-3.40;58.90
15879;DHT22;61999;51.514;14.614;2023-01-20T01:18:41;-3.40;58.30
15879;DHT22;61999;51.514;14.614;2023-01-20T01:21:11;-3.30;58.00
15879;DHT22;61999;51.514;14.614;2023-01-20T01:23:40;-3.20;57.80
15879;DHT22;61999;51.514;14.614;2023-01-20T01:26:09;-3.10;57.70
15879;DHT22;61999;51.514;14.614;2023-01-20T01:28:38;-3.10;57.80
15879;DHT22;61999;51.514;14.614;2023-01-20T01:31:07;-3.10;58.30
15879;DHT22;61999;51.514;14.614;2023-01-20T01:33:35;-3.10;58.00
15879;DHT22;61999;51.514;14.614;2023-01-20T01:36:06;-3.00;57.80
15879;DHT22;61999;51.514;14.614;2023-01-20T01:38:38;-3.00;57.80
15879;DHT22;61999;51.514;14.614;2023-01-20T01:41:06;-2.90;57.70
15879;DHT22;61999;51.514;14.614;2023-01-20T01:43:37;-2.90;57.60
15879;DHT22;61999;51.514;14.614;2023-01-20T01:46:06;-2.90;57.50
15879;DHT22;61999;51.514;14.614;2023-01-20T01:48:37;-2.90;57.70
15879;DHT22;61999;51.514;14.614;2023-01-20T01:51:12;-2.80;57.80
15879;DHT22;61999;51.514;14.614;2023-01-20T01:53:47;-2.80;57.60
15879;DHT22;61999;51.514;14.614;2023-01-20T01:56:20;-2.80;57.50
15879;DHT22;61999;51.514;14.614;2023-01-20T01:58:53;-2.70;57.40
15879;DHT22;61999;51.514;14.614;2023-01-20T02:01:24;-2.70;57.50
15879;DHT22;61999;51.514;14.614;2023-01-20T02:03:56;-2.70;57.40
15879;DHT22;61999;51.514;14.614;2023-01-20T02:06:32;-2.60;57.40
15879;DHT22;61999;51.514;14.614;2023-01-20T02:09:03;-2.60;57.40
15879;DHT22;61999;51.514;14.614;2023-01-20T02:11:36;-2.60;57.50
15879;DHT22;61999;51.514;14.614;2023-01-20T02:14:07;-2.60;58.00
15879;DHT22;61999;51.514;14.614;2023-01-20T02:16:43;-2.60;57.70
15879;DHT22;61999;51.514;14.614;2023-01-20T02:19:44;-2.60;57.40
15879;DHT22;61999;51.514;14.614;2023-01-20T02:22:50;-2.60;57.30
15879;DHT22;61999;51.514;14.614;2023-01-20T02:25:42;-2.50;57.30
15879;DHT22;61999;51.514;14.614;2023-01-20T02:28:38;-2.50;57.20
15879;DHT22;61999;51.514;14.614;2023-01-20T02:31:53;-2.50;57.20
15879;DHT22;61999;51.514;14.614;2023-01-20T02:34:38;-2.50;57.10
15879;DHT22;61999;51.514;14.614;2023-01-20T02:37:15;-2.50;57.10
15879;DHT22;61999;51.514;14.614;2023-01-20T02:39:54;-2.40;57.20
15879;DHT22;61999;51.514;14.614;2023-01-20T02:42:35;-2.40;57.30
15879;DHT22;61999;51.514;14.614;2023-01-20T02:45:14;-2.40;57.30
15879;DHT22;61999;51.514;14.614;2023-01-20T02:47:55;-2.40;57.30
15879;DHT22;61999;51.514;14.614;2023-01-20T02:50:30;-2.30;57.40
15879;DHT22;61999;51.514;14.614;2023-01-20T02:53:06;-2.30;57.30
15879;DHT22;61999;51.514;14.614;2023-01-20T02:55:41;-2.30;57.30
15879;DHT22;61999;51.514;14.614;2023-01-20T02:58:17;-2.20;57.40
15879;DHT22;61999;51.514;14.614;2023-01-20T03:00:52;-2.20;58.00
15879;DHT22;61999;51.514;14.614;2023-01-20T03:03:29;-2.20;57.30
15879;DHT22;61999;51.514;14.614;2023-01-20T03:06:04;-2.10;57.30
15879;DHT22;61999;51.514;14.614;2023-01-20T03:08:39;-2.10;57.20
15879;DHT22;61999;51.514;14.614;2023-01-20T03:11:08;-2.10;57.30
15879;DHT22;61999;51.514;14.614;2023-01-20T03:13:40;-2.00;57.20
15879;DHT22;61999;51.514;14.614;2023-01-20T03:16:17;-2.00;57.20
15879;DHT22;61999;51.514;14.614;2023-01-20T03:18:50;-2.00;57.20
15879;DHT22;61999;51.514;14.614;2023-01-20T03:21:19;-2.00;57.20
15879;DHT22;61999;51.514;14.614;2023-01-20T03:23:50;-1.90;57.20
15879;DHT22;61999;51.514;14.614;2023-01-20T03:26:21;-1.90;57.20
15879;DHT22;61999;51.514;14.614;2023-01-20T03:28:50;-1.90;57.10
15879;DHT22;61999;51.514;14.614;2023-01-20T03:31:21;-1.90;57.00
15879;DHT22;61999;51.514;14.614;2023-01-20T03:33:55;-1.90;57.10
15879;DHT22;61999;51.514;14.614;2023-01-20T03:36:26;-1.90;57.10
15879;DHT22;61999;51.514;14.614;2023-01-20T03:38:57;-1.90;57.10
15879;DHT22;61999;51.514;14.614;2023-01-20T03:41:35;-1.80;57.20
15879;DHT22;61999;51.514;14.614;2023-01-20T03:44:18;-1.90;57.20
15879;DHT22;61999;51.514;14.614;2023-01-20T03:46:59;-1.80;57.30
15879;DHT22;61999;51.514;14.614;2023-01-20T03:49:43;-1.80;57.20
15879;DHT22;61999;51.514;14.614;2023-01-20T03:52:25;-1.80;57.50
15879;DHT22;61999;51.514;14.614;2023-01-20T03:55:04;-1.80;57.60
15879;DHT22;61999;51.514;14.614;2023-01-20T03:57:43;-1.80;57.40
15879;DHT22;61999;51.514;14.614;2023-01-20T04:00:20;-1.90;57.60
15879;DHT22;61999;51.514;14.614;2023-01-20T04:02:53;-1.90;57.70
15879;DHT22;61999;51.514;14.614;2023-01-20T04:05:24;-1.90;57.50
15879;DHT22;61999;51.514;14.614;2023-01-20T04:07:55;-1.90;57.40
15879;DHT22;61999;51.514;14.614;2023-01-20T04:10:27;-1.80;57.40
15879;DHT22;61999;51.514;14.614;2023-01-20T04:12:57;-1.80;58.00
15879;DHT22;61999;51.514;14.614;2023-01-20T04:15:26;-1.80;57.30
15879;DHT22;61999;51.514;14.614;2023-01-20T04:18:10;-1.80;57.30
15879;DHT22;61999;51.514;14.614;2023-01-20T04:20:41;-1.80;57.60
15879;DHT22;61999;51.514;14.614;2023-01-20T04:23:15;-1.80;58.30
15879;DHT22;61999;51.514;14.614;2023-01-20T04:25:49;-1.80;57.60
15879;DHT22;61999;51.514;14.614;2023-01-20T04:28:18;-1.80;57.50
15879;DHT22;61999;51.514;14.614;2023-01-20T04:30:46;-1.80;57.50
15879;DHT22;61999;51.514;14.614;2023-01-20T04:33:15;-1.80;57.60
15879;DHT22;61999;51.514;14.614;2023-01-20T04:35:44;-1.80;57.50
15879;DHT22;61999;51.514;14.614;2023-01-20T04:38:12;-1.70;57.60
15879;DHT22;61999;51.514;14.614;2023-01-20T04:40:41;-1.70;57.60
15879;DHT22;61999;51.514;14.614;2023-01-20T04:43:09;-1.70;57.60
15879;DHT22;61999;51.514;14.614;2023-01-20T04:45:39;-1.60;57.60
15879;DHT22;61999;51.514;14.614;2023-01-20T04:48:08;-1.60;57.50
15879;DHT22;61999;51.514;14.614;2023-01-20T04:50:37;-1.60;57.50
15879;DHT22;61999;51.514;14.614;2023-01-20T04:53:10;-1.60;57.60
15879;DHT22;61999;51.514;14.614;2023-01-20T04:55:42;-1.60;57.50
15879;DHT22;61999;51.514;14.614;2023-01-20T04:58:10;-1.60;57.50
15879;DHT22;61999;51.514;14.614;2023-01-20T05:00:38;-1.60;57.60
15879;DHT22;61999;51.514;14.614;2023-01-20T05:03:09;-1.60;57.60
15879;DHT22;61999;51.514;14.614;2023-01-20T05:05:37;-1.60;57.50
15879;DHT22;61999;51.514;14.614;2023-01-20T05:08:21;-1.60;57.60
15879;DHT22;61999;51.514;14.614;2023-01-20T05:10:49;-1.60;57.60
15879;DHT22;61999;51.514;14.614;2023-01-20T05:13:17;-1.60;57.60
15879;DHT22;61999;51.514;14.614;2023-01-20T05:15:45;-1.60;57.60
15879;DHT22;61999;51.514;14.614;2023-01-20T05:18:13;-1.60;57.60
15879;DHT22;61999;51.514;14.614;2023-01-20T05:20:43;-1.60;57.60
15879;DHT22;61999;51.514;14.614;2023-01-20T05:23:11;-1.60;57.80
15879;DHT22;61999;51.514;14.614;2023-01-20T05:25:41;-1.60;57.80
15879;DHT22;61999;51.514;14.614;2023-01-20T05:28:09;-1.60;57.80
15879;DHT22;61999;51.514;14.614;2023-01-20T05:30:37;-1.60;58.20
15879;DHT22;61999;51.514;14.614;2023-01-20T05:33:05;-1.60;58.40
15879;DHT22;61999;51.514;14.614;2023-01-20T05:35:38;-1.70;58.20
15879;DHT22;61999;51.514;14.614;2023-01-20T05:38:06;-1.60;58.10
15879;DHT22;61999;51.514;14.614;2023-01-20T05:40:34;-1.60;58.10
15879;DHT22;61999;51.514;14.614;2023-01-20T05:43:04;-1.60;58.20
15879;DHT22;61999;51.514;14.614;2023-01-20T05:45:32;-1.60;58.30
15879;DHT22;61999;51.514;14.614;2023-01-20T05:48:01;-1.60;58.30
15879;DHT22;61999;51.514;14.614;2023-01-20T05:50:30;-1.60;58.30
15879;DHT22;61999;51.514;14.614;2023-01-20T05:52:58;-1.50;58.40
15879;DHT22;61999;51.514;14.614;2023-01-20T05:55:26;-1.50;59.00
15879;DHT22;61999;51.514;14.614;2023-01-20T05:58:02;-1.50;58.30
15879;DHT22;61999;51.514;14.614;2023-01-20T06:00:34;-1.40;58.40
15879;DHT22;61999;51.514;14.614;2023-01-20T06:03:02;-1.40;58.20
15879;DHT22;61999;51.514;14.614;2023-01-20T06:05:31;-1.40;58.20
15879;DHT22;61999;51.514;14.614;2023-01-20T06:07:59;-1.40;58.10
15879;DHT22;61999;51.514;14.614;2023-01-20T06:10:27;-1.40;58.20
15879;DHT22;61999;51.514;14.614;2023-01-20T06:12:56;-1.40;58.20
15879;DHT22;61999;51.514;14.614;2023-01-20T06:15:26;-1.40;58.20
15879;DHT22;61999;51.514;14.614;2023-01-20T06:17:55;-1.40;58.20
15879;DHT22;61999;51.514;14.614;2023-01-20T06:20:23;-1.40;58.30
15879;DHT22;61999;51.514;14.614;2023-01-20T06:22:53;-1.50;58.30
15879;DHT22;61999;51.514;14.614;2023-01-20T06:25:22;-1.40;58.60
15879;DHT22;61999;51.514;14.614;2023-01-20T06:27:50;-1.40;58.50
15879;DHT22;61999;51.514;14.614;2023-01-20T06:30:18;-1.40;58.50
15879;DHT22;61999;51.514;14.614;2023-01-20T06:32:48;-1.40;58.60
15879;DHT22;61999;51.514;14.614;2023-01-20T06:35:16;-1.40;58.70
15879;DHT22;61999;51.514;14.614;2023-01-20T06:37:44;-1.50;58.70
15879;DHT22;61999;51.514;14.614;2023-01-20T06:40:12;-1.50;58.70
15879;DHT22;61999;51.514;14.614;2023-01-20T06:42:41;-1.50;58.70
15879;DHT22;61999;51.514;14.614;2023-01-20T06:45:10;-1.50;58.70
15879;DHT22;61999;51.514;14.614;2023-01-20T06:47:38;-1.50;58.70
15879;DHT22;61999;51.514;14.614;2023-01-20T06:50:09;-1.50;58.90
15879;DHT22;61999;51.514;14.614;2023-01-20T06:52:37;-1.60;58.90
15879;DHT22;61999;51.514;14.614;2023-01-20T06:55:05;-1.60;58.80
15879;DHT22;61999;51.514;14.614;2023-01-20T06:57:37;-1.50;59.00
15879;DHT22;61999;51.514;14.614;2023-01-20T07:00:06;-1.50;58.90
15879;DHT22;61999;51.514;14.614;2023-01-20T07:02:35;-1.50;59.00
15879;DHT22;61999;51.514;14.614;2023-01-20T07:05:03;-1.50;59.00
15879;DHT22;61999;51.514;14.614;2023-01-20T07:07:35;-1.50;59.00
15879;DHT22;61999;51.514;14.614;2023-01-20T07:10:04;-1.50;59.00
15879;DHT22;61999;51.514;14.614;2023-01-20T07:12:33;-1.50;59.00
15879;DHT22;61999;51.514;14.614;2023-01-20T07:15:01;-1.50;59.10
15879;DHT22;61999;51.514;14.614;2023-01-20T07:17:29;-1.50;59.20
15879;DHT22;61999;51.514;14.614;2023-01-20T07:19:57;-1.50;59.20
15879;DHT22;61999;51.514;14.614;2023-01-20T07:22:25;-1.50;59.30
15879;DHT22;61999;51.514;14.614;2023-01-20T07:24:54;-1.50;59.40
15879;DHT22;61999;51.514;14.614;2023-01-20T07:27:22;-1.50;59.40
15879;DHT22;61999;51.514;14.614;2023-01-20T07:29:50;-1.40;59.40
15879;DHT22;61999;51.514;14.614;2023-01-20T07:32:19;-1.40;59.40
15879;DHT22;61999;51.514;14.614;2023-01-20T07:34:46;-1.40;59.40
15879;DHT22;61999;51.514;14.614;2023-01-20T07:37:15;-1.40;59.40
15879;DHT22;61999;51.514;14.614;2023-01-20T07:39:43;-1.40;59.40
15879;DHT22;61999;51.514;14.614;2023-01-20T07:42:13;-1.30;60.10
15879;DHT22;61999;51.514;14.614;2023-01-20T07:44:41;-1.30;59.50
15879;DHT22;61999;51.514;14.614;2023-01-20T07:47:09;-1.30;59.60
15879;DHT22;61999;51.514;14.614;2023-01-20T07:49:37;-1.20;59.70
15879;DHT22;61999;51.514;14.614;2023-01-20T07:52:05;-1.10;59.60
15879;DHT22;61999;51.514;14.614;2023-01-20T07:54:33;-1.10;59.50
15879;DHT22;61999;51.514;14.614;2023-01-20T07:57:01;-1.10;59.60
15879;DHT22;61999;51.514;14.614;2023-01-20T07:59:31;-1.00;59.70
15879;DHT22;61999;51.514;14.614;2023-01-20T08:01:59;-1.00;59.70
15879;DHT22;61999;51.514;14.614;2023-01-20T08:04:27;-0.90;59.60
15879;DHT22;61999;51.514;14.614;2023-01-20T08:06:55;-0.90;59.50
15879;DHT22;61999;51.514;14.614;2023-01-20T08:09:23;-0.90;59.50
15879;DHT22;61999;51.514;14.614;2023-01-20T08:11:51;-0.90;59.30
15879;DHT22;61999;51.514;14.614;2023-01-20T08:14:19;-0.90;59.40
15879;DHT22;61999;51.514;14.614;2023-01-20T08:16:48;-0.90;59.50
15879;DHT22;61999;51.514;14.614;2023-01-20T08:19:17;-0.90;59.60
15879;DHT22;61999;51.514;14.614;2023-01-20T08:21:45;-0.90;59.70
15879;DHT22;61999;51.514;14.614;2023-01-20T08:24:13;-0.90;59.70
15879;DHT22;61999;51.514;14.614;2023-01-20T08:26:41;-0.90;59.60
15879;DHT22;61999;51.514;14.614;2023-01-20T08:29:09;-0.90;59.70
15879;DHT22;61999;51.514;14.614;2023-01-20T08:31:37;-0.80;59.90
15879;DHT22;61999;51.514;14.614;2023-01-20T08:34:08;-0.80;59.80
15879;DHT22;61999;51.514;14.614;2023-01-20T08:36:39;-0.70;59.90
15879;DHT22;61999;51.514;14.614;2023-01-20T08:39:09;-0.70;59.70
15879;DHT22;61999;51.514;14.614;2023-01-20T08:41:42;-0.70;59.80
15879;DHT22;61999;51.514;14.614;2023-01-20T08:44:12;-0.70;59.80
15879;DHT22;61999;51.514;14.614;2023-01-20T08:46:42;-0.70;59.80
15879;DHT22;61999;51.514;14.614;2023-01-20T08:49:15;-0.70;59.90
15879;DHT22;61999;51.514;14.614;2023-01-20T08:51:44;-0.50;60.00
15879;DHT22;61999;51.514;14.614;2023-01-20T08:54:13;-0.50;59.70
15879;DHT22;61999;51.514;14.614;2023-01-20T08:56:42;-0.50;59.80
15879;DHT22;61999;51.514;14.614;2023-01-20T08:59:10;-0.50;59.60
15879;DHT22;61999;51.514;14.614;2023-01-20T09:01:38;-0.40;59.50
15879;DHT22;61999;51.514;14.614;2023-01-20T09:04:09;-0.40;59.50
15879;DHT22;61999;51.514;14.614;2023-01-20T09:06:41;-0.40;59.40
15879;DHT22;61999;51.514;14.614;2023-01-20T09:09:11;-0.40;59.30
15879;DHT22;61999;51.514;14.614;2023-01-20T09:11:41;-0.40;59.30
15879;DHT22;61999;51.514;14.614;2023-01-20T09:14:16;-0.50;59.40
15879;DHT22;61999;51.514;14.614;2023-01-20T09:16:45;-0.40;59.70
15879;DHT22;61999;51.514;14.614;2023-01-20T09:19:14;-0.40;59.70
15879;DHT22;61999;51.514;14.614;2023-01-20T09:21:44;-0.40;59.70
15879;DHT22;61999;51.514;14.614;2023-01-20T09:24:12;-0.40;59.70
15879;DHT22;61999;51.514;14.614;2023-01-20T09:26:40;-0.40;59.80
15879;DHT22;61999;51.514;14.614;2023-01-20T09:29:10;-0.40;59.60
15879;DHT22;61999;51.514;14.614;2023-01-20T09:31:49;-0.40;59.70
15879;DHT22;61999;51.514;14.614;2023-01-20T09:34:19;-0.40;59.60
15879;DHT22;61999;51.514;14.614;2023-01-20T09:36:53;-0.40;59.60
15879;DHT22;61999;51.514;14.614;2023-01-20T09:39:23;-0.40;59.80
15879;DHT22;61999;51.514;14.614;2023-01-20T09:42:24;-0.40;59.90
15879;DHT22;61999;51.514;14.614;2023-01-20T09:45:20;-0.30;59.80
15879;DHT22;61999;51.514;14.614;2023-01-20T09:47:57;-0.30;59.80
15879;DHT22;61999;51.514;14.614;2023-01-20T09:50:44;-0.30;59.80
15879;DHT22;61999;51.514;14.614;2023-01-20T09:53:46;-0.30;59.90
15879;DHT22;61999;51.514;14.614;2023-01-20T09:56:24;-0.20;59.80
15879;DHT22;61999;51.514;14.614;2023-01-20T09:58:58;-0.10;59.80
15879;DHT22;61999;51.514;14.614;2023-01-20T10:01:35;-0.10;59.80
15879;DHT22;61999;51.514;14.614;2023-01-20T10:04:12;0.00;59.60
15879;DHT22;61999;51.514;14.614;2023-01-20T10:06:48;0.00;59.50
15879;DHT22;61999;51.514;14.614;2023-01-20T10:09:27;0.00;59.50
15879;DHT22;61999;51.514;14.614;2023-01-20T10:12:04;0.00;59.50
15879;DHT22;61999;51.514;14.614;2023-01-20T10:14:38;0.10;59.40
15879;DHT22;61999;51.514;14.614;2023-01-20T10:17:12;0.10;59.40
15879;DHT22;61999;51.514;14.614;2023-01-20T10:19:50;0.10;59.40
15879;DHT22;61999;51.514;14.614;2023-01-20T10:22:29;0.20;59.50
15879;DHT22;61999;51.514;14.614;2023-01-20T10:25:10;0.20;59.40
15879;DHT22;61999;51.514;14.614;2023-01-20T10:27:49;0.20;59.30
15879;DHT22;61999;51.514;14.614;2023-01-20T10:30:24;0.30;59.00
15879;DHT22;61999;51.514;14.614;2023-01-20T10:33:01;0.30;58.70
15879;DHT22;61999;51.514;14.614;2023-01-20T10:35:37;0.30;58.60
15879;DHT22;61999;51.514;14.614;2023-01-20T10:38:16;0.30;58.50
15879;DHT22;61999;51.514;14.614;2023-01-20T10:40:59;0.40;58.10
15879;DHT22;61999;51.514;14.614;2023-01-20T10:43:32;0.40;57.50
15879;DHT22;61999;51.514;14.614;2023-01-20T10:46:11;0.40;57.50
15879;DHT22;61999;51.514;14.614;2023-01-20T10:49:05;0.30;57.60
15879;DHT22;61999;51.514;14.614;2023-01-20T10:51:52;0.30;57.80
15879;DHT22;61999;51.514;14.614;2023-01-20T10:54:36;0.20;57.80
15879;DHT22;61999;51.514;14.614;2023-01-20T10:57:15;0.20;57.70
15879;DHT22;61999;51.514;14.614;2023-01-20T10:59:45;0.20;57.60
15879;DHT22;61999;51.514;14.614;2023-01-20T11:02:19;0.10;57.70
15879;DHT22;61999;51.514;14.614;2023-01-20T11:04:53;0.00;57.80
15879;DHT22;61999;51.514;14.614;2023-01-20T11:07:26;0.00;58.00
15879;DHT22;61999;51.514;14.614;2023-01-20T11:09:55;0.00;58.20
15879;DHT22;61999;51.514;14.614;2023-01-20T11:12:27;0.00;58.20
15879;DHT22;61999;51.514;14.614;2023-01-20T11:15:00;0.00;58.50
15879;DHT22;61999;51.514;14.614;2023-01-20T11:17:33;0.00;58.40
15879;DHT22;61999;51.514;14.614;2023-01-20T11:20:05;0.00;58.40
15879;DHT22;61999;51.514;14.614;2023-01-20T11:22:35;0.00;58.60
15879;DHT22;61999;51.514;14.614;2023-01-20T11:25:05;0.00;58.60
15879;DHT22;61999;51.514;14.614;2023-01-20T11:27:52;0.00;58.60
15879;DHT22;61999;51.514;14.614;2023-01-20T11:30:27;0.00;58.60
15879;DHT22;61999;51.514;14.614;2023-01-20T11:33:08;0.10;58.60
15879;DHT22;61999;51.514;14.614;2023-01-20T11:35:56;0.10;58.70
15879;DHT22;61999;51.514;14.614;2023-01-20T11:38:27;0.10;58.60
15879;DHT22;61999;51.514;14.614;2023-01-20T11:40:56;0.30;58.30
15879;DHT22;61999;51.514;14.614;2023-01-20T11:43:36;0.30;58.20
15879;DHT22;61999;51.514;14.614;2023-01-20T11:46:10;0.20;58.20
15879;DHT22;61999;51.514;14.614;2023-01-20T11:48:46;0.20;58.30
15879;DHT22;61999;51.514;14.614;2023-01-20T11:51:20;0.20;58.40
15879;DHT22;61999;51.514;14.614;2023-01-20T11:53:53;0.20;58.40
15879;DHT22;61999;51.514;14.614;2023-01-20T11:56:38;0.20;58.40
15879;DHT22;61999;51.514;14.614;2023-01-20T11:59:23;0.10;58.30
15879;DHT22;61999;51.514;14.614;2023-01-20T12:01:59;0.10;58.40
15879;DHT22;61999;51.514;14.614;2023-01-20T12:04:48;0.20;58.60
15879;DHT22;61999;51.514;14.614;2023-01-20T12:07:32;0.20;58.30
15879;DHT22;61999;51.514;14.614;2023-01-20T12:10:12;0.30;58.10
15879;DHT22;61999;51.514;14.614;2023-01-20T12:12:48;0.30;57.80
15879;DHT22;61999;51.514;14.614;2023-01-20T12:15:23;0.30;57.90
15879;DHT22;61999;51.514;14.614;2023-01-20T12:17:55;0.30;57.80
15879;DHT22;61999;51.514;14.614;2023-01-20T12:20:29;0.20;57.80
15879;DHT22;61999;51.514;14.614;2023-01-20T12:23:24;0.20;57.90
15879;DHT22;61999;51.514;14.614;2023-01-20T12:26:12;0.20;58.00
15879;DHT22;61999;51.514;14.614;2023-01-20T12:28:44;0.10;58.10
15879;DHT22;61999;51.514;14.614;2023-01-20T12:31:21;0.20;58.20
15879;DHT22;61999;51.514;14.614;2023-01-20T12:33:58;0.10;58.20
15879;DHT22;61999;51.514;14.614;2023-01-20T12:36:57;0.20;58.20
15879;DHT22;61999;51.514;14.614;2023-01-20T12:39:45;0.20;58.10
15879;DHT22;61999;51.514;14.614;2023-01-20T12:42:47;0.20;58.20
15879;DHT22;61999;51.514;14.614;2023-01-20T12:46:13;0.20;58.10
15879;DHT22;61999;51.514;14.614;2023-01-20T12:49:16;0.20;58.10
15879;DHT22;61999;51.514;14.614;2023-01-20T12:52:20;0.20;58.10
15879;DHT22;61999;51.514;14.614;2023-01-20T12:55:27;0.10;58.00
15879;DHT22;61999;51.514;14.614;2023-01-20T12:58:16;0.20;57.80
15879;DHT22;61999;51.514;14.614;2023-01-20T13:01:15;0.20;57.70
15879;DHT22;61999;51.514;14.614;2023-01-20T13:04:28;0.20;57.80
15879;DHT22;61999;51.514;14.614;2023-01-20T13:07:44;0.10;57.80
15879;DHT22;61999;51.514;14.614;2023-01-20T13:10:28;0.10;58.00
15879;DHT22;61999;51.514;14.614;2023-01-20T13:13:19;0.10;58.00
15879;DHT22;61999;51.514;14.614;2023-01-20T13:16:03;0.10;57.90
15879;DHT22;61999;51.514;14.614;2023-01-20T13:18:54;0.10;58.00
15879;DHT22;61999;51.514;14.614;2023-01-20T13:21:32;0.10;57.90
15879;DHT22;61999;51.514;14.614;2023-01-20T13:24:03;0.00;58.00
15879;DHT22;61999;51.514;14.614;2023-01-20T13:26:34;0.00;58.00
15879;DHT22;61999;51.514;14.614;2023-01-20T13:29:03;0.00;58.10
15879;DHT22;61999;51.514;14.614;2023-01-20T13:31:43;-0.10;58.10
15879;DHT22;61999;51.514;14.614;2023-01-20T13:34:34;-0.10;58.10
15879;DHT22;61999;51.514;14.614;2023-01-20T13:37:29;-0.10;58.10
15879;DHT22;61999;51.514;14.614;2023-01-20T13:39:59;0.00;58.00
15879;DHT22;61999;51.514;14.614;2023-01-20T13:42:48;0.00;57.90
15879;DHT22;61999;51.514;14.614;2023-01-20T13:45:25;-0.10;57.90
15879;DHT22;61999;51.514;14.614;2023-01-20T13:47:59;0.00;57.80
15879;DHT22;61999;51.514;14.614;2023-01-20T13:50:30;-0.10;58.10
15879;DHT22;61999;51.514;14.614;2023-01-20T13:53:23;-0.10;58.10
15879;DHT22;61999;51.514;14.614;2023-01-20T13:55:58;-0.10;58.00
15879;DHT22;61999;51.514;14.614;2023-01-20T13:58:28;0.10;57.90
15879;DHT22;61999;51.514;14.614;2023-01-20T14:00:59;0.10;57.80
15879;DHT22;61999;51.514;14.614;2023-01-20T14:03:30;0.00;57.90
15879;DHT22;61999;51.514;14.614;2023-01-20T14:06:02;-0.10;58.00
15879;DHT22;61999;51.514;14.614;2023-01-20T14:08:38;-0.20;58.10
15879;DHT22;61999;51.514;14.614;2023-01-20T15:12:34;-4.90;66.00
15879;DHT22;61999;51.514;14.614;2023-01-20T15:15:18;-3.30;68.40
15879;DHT22;61999;51.514;14.614;2023-01-20T15:18:15;-2.80;67.10
15879;DHT22;61999;51.514;14.614;2023-01-20T15:20:51;-2.40;65.50
15879;DHT22;61999;51.514;14.614;2023-01-20T15:23:42;-2.20;64.40
15879;DHT22;61999;51.514;14.614;2023-01-20T15:26:22;-2.00;63.70
15879;DHT22;61999;51.514;14.614;2023-01-20T15:28:55;-1.80;63.10
15879;DHT22;61999;51.514;14.614;2023-01-20T15:31:27;-1.70;62.80
15879;DHT22;61999;51.514;14.614;2023-01-20T15:33:56;-1.50;62.30
15879;DHT22;61999;51.514;14.614;2023-01-20T15:36:27;-1.40;61.70
15879;DHT22;61999;51.514;14.614;2023-01-20T15:38:58;-1.40;61.30
15879;DHT22;61999;51.514;14.614;2023-01-20T15:41:26;-1.40;61.20
15879;DHT22;61999;51.514;14.614;2023-01-20T15:43:55;-1.30;61.00
15879;DHT22;61999;51.514;14.614;2023-01-20T15:46:24;-1.20;60.70
15879;DHT22;61999;51.514;14.614;2023-01-20T15:48:52;-1.20;60.50
15879;DHT22;61999;51.514;14.614;2023-01-20T15:51:20;-1.20;60.30
15879;DHT22;61999;51.514;14.614;2023-01-20T15:53:47;-1.30;60.30
15879;DHT22;61999;51.514;14.614;2023-01-20T15:56:18;-1.30;60.50
15879;DHT22;61999;51.514;14.614;2023-01-20T15:58:49;-1.30;60.60
15879;DHT22;61999;51.514;14.614;2023-01-20T16:01:21;-1.40;60.40
15879;DHT22;61999;51.514;14.614;2023-01-20T16:03:51;-1.40;60.40
15879;DHT22;61999;51.514;14.614;2023-01-20T16:06:24;-1.40;60.70
15879;DHT22;61999;51.514;14.614;2023-01-20T16:08:57;-1.30;60.40
15879;DHT22;61999;51.514;14.614;2023-01-20T16:11:27;-1.40;60.20
15879;DHT22;61999;51.514;14.614;2023-01-20T16:13:55;-1.40;60.30
15879;DHT22;61999;51.514;14.614;2023-01-20T16:16:28;-1.30;60.20
15879;DHT22;61999;51.514;14.614;2023-01-20T16:18:59;-1.30;60.10
15879;DHT22;61999;51.514;14.614;2023-01-20T16:21:28;-1.30;59.80
15879;DHT22;61999;51.514;14.614;2023-01-20T16:23:56;-1.30;59.60
15879;DHT22;61999;51.514;14.614;2023-01-20T16:26:25;-1.30;59.70
15879;DHT22;61999;51.514;14.614;2023-01-20T16:28:56;-1.40;59.60
15879;DHT22;61999;51.514;14.614;2023-01-20T16:31:27;-1.40;59.60
15879;DHT22;61999;51.514;14.614;2023-01-20T16:33:55;-1.40;59.60
15879;DHT22;61999;51.514;14.614;2023-01-20T16:36:23;-1.50;59.60
15879;DHT22;61999;51.514;14.614;2023-01-20T16:38:51;-1.50;59.60
15879;DHT22;61999;51.514;14.614;2023-01-20T16:41:21;-1.50;59.50
15879;DHT22;61999;51.514;14.614;2023-01-20T16:43:51;-1.50;59.40
15879;DHT22;61999;51.514;14.614;2023-01-20T16:46:22;-1.50;59.40
15879;DHT22;61999;51.514;14.614;2023-01-20T16:48:52;-1.60;59.30
15879;DHT22;61999;51.514;14.614;2023-01-20T16:51:25;-1.60;59.30
15879;DHT22;61999;51.514;14.614;2023-01-20T16:53:55;-1.70;59.40
15879;DHT22;61999;51.514;14.614;2023-01-20T16:56:25;-1.70;59.50
15879;DHT22;61999;51.514;14.614;2023-01-20T16:58:56;-1.80;59.50
15879;DHT22;61999;51.514;14.614;2023-01-20T17:01:27;-1.80;59.60
15879;DHT22;61999;51.514;14.614;2023-01-20T17:03:59;-1.70;59.60